Time;durP1;ratioP1;P1;durP2;ratioP2;P2;SDS_P1;SDS_P2;PMS_P1;PMS_P2;Temp;Humidity;BMP_temperature;BMP_pressure;BME280_temperature;BME280_humidity;BME280_pressure;Samples;Min_cycle;Max_cycle;Signal;HPM_P1;HPM_P2
2023/08/04 00:02:17;;;;;;;1.45;0.50;;;17.40;99.90;;;;;;4902639;29;20056;-81
2023/08/04 00:04:46;;;;;;;3.28;0.45;;;17.40;99.90;;;;;;4902754;29;20073;-81
2023/08/04 00:07:12;;;;;;;2.00;0.60;;;17.40;99.90;;;;;;4900433;29;20048;-81
2023/08/04 00:09:39;;;;;;;2.40;0.70;;;17.40;99.90;;;;;;4901721;29;20045;-81
2023/08/04 00:12:06;;;;;;;3.90;0.93;;;17.40;99.90;;;;;;4901024;29;20104;-81
2023/08/04 00:14:33;;;;;;;1.15;0.45;;;17.30;99.90;;;;;;4901746;29;20113;-81
2023/08/04 00:17:00;;;;;;;2.03;0.63;;;17.30;99.90;;;;;;4899974;29;20063;-81
2023/08/04 00:19:26;;;;;;;0.95;0.40;;;17.30;99.90;;;;;;4900202;29;20056;-81
2023/08/04 00:21:53;;;;;;;1.15;0.40;;;17.30;99.90;;;;;;4900814;29;20465;-81
2023/08/04 00:24:20;;;;;;;4.82;0.80;;;17.30;99.90;;;;;;4901912;29;20124;-81
2023/08/04 00:26:46;;;;;;;1.80;0.68;;;17.30;99.90;;;;;;4902058;29;20048;-81
2023/08/04 00:29:13;;;;;;;4.43;0.63;;;17.40;99.90;;;;;;4898521;29;20092;-81
2023/08/04 00:31:40;;;;;;;2.42;0.50;;;17.40;99.90;;;;;;4901686;29;20105;-82
2023/08/04 00:34:06;;;;;;;3.05;0.75;;;17.40;99.90;;;;;;4901386;29;20048;-82
2023/08/04 00:36:33;;;;;;;1.95;0.70;;;17.40;99.90;;;;;;4899969;29;20049;-82
2023/08/04 00:39:00;;;;;;;0.60;0.40;;;17.40;99.90;;;;;;4901343;29;20044;-80
2023/08/04 00:41:27;;;;;;;2.10;0.50;;;17.40;99.90;;;;;;4899439;29;20056;-82
2023/08/04 00:43:54;;;;;;;1.30;0.55;;;17.50;99.90;;;;;;4899772;29;20071;-83
2023/08/04 00:46:22;;;;;;;0.70;0.30;;;17.50;99.90;;;;;;4901271;29;20096;-80
2023/08/04 00:48:49;;;;;;;1.20;0.45;;;17.50;99.90;;;;;;4901068;29;20045;-81
2023/08/04 00:51:16;;;;;;;1.63;0.65;;;17.50;99.90;;;;;;4901096;29;20045;-81
2023/08/04 00:53:43;;;;;;;0.60;0.50;;;17.50;99.90;;;;;;4902278;29;20041;-80
2023/08/04 00:56:10;;;;;;;3.03;0.70;;;17.60;99.90;;;;;;4902292;29;20077;-81
2023/08/04 00:58:36;;;;;;;2.58;0.77;;;17.50;99.90;;;;;;4900917;29;20579;-81
2023/08/04 01:01:03;;;;;;;6.68;0.40;;;17.50;99.90;;;;;;4899824;29;20063;-83
2023/08/04 01:03:30;;;;;;;1.27;0.30;;;17.50;99.90;;;;;;4899228;29;20060;-83
2023/08/04 01:06:16;;;;;;;4.47;0.80;;;17.60;99.90;;;;;;4900942;29;20054;-83
2023/08/04 01:08:57;;;;;;;3.15;0.63;;;17.60;99.90;;;;;;4900038;29;20048;-83
2023/08/04 01:11:31;;;;;;;2.00;0.60;;;17.60;99.90;;;;;;4898383;29;20142;-82
2023/08/04 01:14:01;;;;;;;2.88;0.50;;;17.60;99.90;;;;;;4900915;29;20053;-83
2023/08/04 01:16:28;;;;;;;4.35;1.13;;;17.60;99.90;;;;;;4900697;29;20063;-83
2023/08/04 01:18:59;;;;;;;2.05;0.70;;;17.70;99.90;;;;;;4900604;29;20052;-83
2023/08/04 01:21:25;;;;;;;4.07;0.77;;;17.70;99.90;;;;;;4901559;29;20112;-83
2023/08/04 01:23:52;;;;;;;2.08;0.70;;;17.70;99.90;;;;;;4899768;29;20049;-83
2023/08/04 01:26:21;;;;;;;1.75;0.70;;;17.70;99.90;;;;;;4901327;29;20048;-81
2023/08/04 01:28:49;;;;;;;3.17;0.70;;;17.70;99.90;;;;;;4900164;29;20044;-80
2023/08/04 01:31:17;;;;;;;2.33;0.60;;;17.70;99.90;;;;;;4900849;29;20560;-81
2023/08/04 01:33:44;;;;;;;2.45;0.50;;;17.70;99.90;;;;;;4903431;29;20179;-80
2023/08/04 01:36:10;;;;;;;2.38;0.60;;;17.70;99.90;;;;;;4900721;29;20084;-80
2023/08/04 01:38:37;;;;;;;2.67;0.70;;;17.70;99.90;;;;;;4899013;29;20105;-81
2023/08/04 01:41:05;;;;;;;2.40;0.60;;;17.70;99.90;;;;;;4901775;29;20299;-81
2023/08/04 01:43:32;;;;;;;2.70;0.77;;;17.70;99.90;;;;;;4899522;29;20056;-80
2023/08/04 01:45:59;;;;;;;4.68;0.98;;;17.70;99.90;;;;;;4902391;29;20560;-81
2023/08/04 01:48:27;;;;;;;4.10;0.88;;;17.70;99.90;;;;;;4901867;29;20048;-81
2023/08/04 01:50:54;;;;;;;3.33;0.60;;;17.70;99.90;;;;;;4901536;29;20079;-80
2023/08/04 01:53:21;;;;;;;1.02;0.50;;;17.70;99.90;;;;;;4898617;29;20045;-81
2023/08/04 01:55:48;;;;;;;3.63;0.70;;;17.70;99.90;;;;;;4905456;29;20041;-80
2023/08/04 01:58:15;;;;;;;1.85;0.70;;;17.60;99.90;;;;;;4903846;29;20056;-81
2023/08/04 02:00:42;;;;;;;1.45;0.50;;;17.70;99.90;;;;;;4904590;29;20104;-80
2023/08/04 02:03:09;;;;;;;1.15;0.50;;;17.70;99.90;;;;;;4903360;29;20059;-80
2023/08/04 02:05:35;;;;;;;3.10;0.73;;;17.60;99.90;;;;;;4903556;29;20045;-81
2023/08/04 02:08:02;;;;;;;4.93;1.02;;;17.60;99.90;;;;;;4904398;29;20393;-80
2023/08/04 02:10:29;;;;;;;1.88;0.47;;;17.60;99.90;;;;;;4904592;29;20056;-78
2023/08/04 02:12:56;;;;;;;1.42;0.60;;;17.60;99.90;;;;;;4904141;29;20099;-81
2023/08/04 02:15:23;;;;;;;3.00;0.50;;;17.60;99.90;;;;;;4905115;29;20053;-81
2023/08/04 02:17:50;;;;;;;2.97;0.80;;;17.60;99.90;;;;;;4904646;29;20054;-80
2023/08/04 02:20:16;;;;;;;2.25;0.60;;;17.60;99.90;;;;;;4902904;29;20064;-80
2023/08/04 02:22:43;;;;;;;1.80;1.27;;;17.60;99.90;;;;;;4901912;29;20100;-81
2023/08/04 02:25:10;;;;;;;3.70;0.70;;;17.60;99.90;;;;;;4907930;29;20049;-82
2023/08/04 02:27:37;;;;;;;1.98;0.75;;;17.60;99.90;;;;;;4907972;29;20089;-80
2023/08/04 02:30:04;;;;;;;1.50;0.60;;;17.60;99.90;;;;;;4907718;29;20052;-80
2023/08/04 02:32:31;;;;;;;6.07;0.63;;;17.60;99.90;;;;;;4906666;29;20052;-80
2023/08/04 02:34:57;;;;;;;3.17;0.60;;;17.60;99.90;;;;;;4898483;29;20072;-81
2023/08/04 02:37:24;;;;;;;2.97;0.60;;;17.60;99.90;;;;;;4915757;29;20105;-81
2023/08/04 02:39:51;;;;;;;2.92;0.52;;;17.60;99.90;;;;;;4903446;29;20489;-80
2023/08/04 02:42:18;;;;;;;2.83;0.73;;;17.60;99.90;;;;;;4904942;29;20053;-81
2023/08/04 02:44:44;;;;;;;1.58;0.60;;;17.60;99.90;;;;;;4904651;29;20053;-81
2023/08/04 02:47:11;;;;;;;0.85;0.60;;;17.60;99.90;;;;;;4903566;29;20531;-81
2023/08/04 02:49:38;;;;;;;1.85;0.60;;;17.60;99.90;;;;;;4904047;29;20077;-80
2023/08/04 02:52:08;;;;;;;2.33;0.60;;;17.60;99.90;;;;;;4903164;29;20049;-81
2023/08/04 02:54:35;;;;;;;0.80;0.50;;;17.60;99.90;;;;;;4903027;29;20136;-81
2023/08/04 02:57:02;;;;;;;2.63;0.80;;;17.60;99.90;;;;;;4903124;29;20108;-81
2023/08/04 02:59:29;;;;;;;4.40;0.63;;;17.70;99.90;;;;;;4903170;29;20056;-81
2023/08/04 03:01:55;;;;;;;1.58;0.60;;;17.70;99.90;;;;;;4902873;29;20041;-81
2023/08/04 03:04:22;;;;;;;2.75;0.80;;;17.70;99.90;;;;;;4902832;29;20060;-81
2023/08/04 03:06:49;;;;;;;4.03;0.70;;;17.70;99.90;;;;;;4903185;29;20465;-81
2023/08/04 03:09:15;;;;;;;2.47;0.70;;;17.70;99.90;;;;;;4902920;29;20049;-81
2023/08/04 03:11:43;;;;;;;2.92;0.88;;;17.70;99.90;;;;;;4902789;29;20044;-81
2023/08/04 03:14:10;;;;;;;1.85;0.95;;;17.70;99.90;;;;;;4902690;29;20056;-81
2023/08/04 03:16:36;;;;;;;1.45;0.52;;;17.70;99.90;;;;;;4901594;29;20044;-81
2023/08/04 03:19:03;;;;;;;3.63;0.70;;;17.80;99.90;;;;;;4902905;29;20504;-81
2023/08/04 03:21:30;;;;;;;2.47;0.60;;;17.70;99.90;;;;;;4902978;29;20056;-81
2023/08/04 03:23:57;;;;;;;1.65;0.63;;;17.70;99.90;;;;;;4901661;29;20077;-81
2023/08/04 03:26:23;;;;;;;3.65;0.63;;;17.80;99.90;;;;;;4901862;29;20120;-80
2023/08/04 03:28:50;;;;;;;3.05;0.88;;;17.80;99.90;;;;;;4901696;29;20522;-81
2023/08/04 03:31:17;;;;;;;2.67;0.60;;;17.80;99.90;;;;;;4901698;29;20394;-81
2023/08/04 03:33:43;;;;;;;1.45;0.60;;;17.70;99.90;;;;;;4901496;29;20052;-81
2023/08/04 03:36:10;;;;;;;2.92;0.60;;;17.80;99.90;;;;;;4903471;29;20056;-81
2023/08/04 03:38:37;;;;;;;2.97;0.73;;;17.80;99.90;;;;;;4903505;29;20084;-81
2023/08/04 03:41:04;;;;;;;2.33;0.80;;;17.70;99.90;;;;;;4902852;29;20428;-81
2023/08/04 03:43:30;;;;;;;3.45;0.68;;;17.80;99.90;;;;;;4902665;29;20061;-81
2023/08/04 03:45:57;;;;;;;1.10;0.52;;;17.70;99.90;;;;;;4902488;29;20052;-81
2023/08/04 03:48:24;;;;;;;3.60;0.50;;;17.70;99.90;;;;;;4902156;29;20060;-81
2023/08/04 03:50:50;;;;;;;2.25;0.73;;;17.80;99.90;;;;;;4901575;29;20052;-79
2023/08/04 03:53:17;;;;;;;1.75;0.68;;;17.70;99.90;;;;;;4899972;29;20053;-81
2023/08/04 03:55:44;;;;;;;1.63;1.02;;;17.70;99.90;;;;;;4898073;29;20051;-81
2023/08/04 03:58:11;;;;;;;1.15;0.50;;;17.70;99.90;;;;;;4901402;29;20061;-81
2023/08/04 04:00:37;;;;;;;1.60;0.60;;;17.70;99.90;;;;;;4901542;29;20052;-81
2023/08/04 04:03:05;;;;;;;3.22;0.80;;;17.80;99.90;;;;;;4900856;29;20052;-81
2023/08/04 04:05:32;;;;;;;3.17;0.60;;;17.80;99.90;;;;;;4900262;29;20084;-81
2023/08/04 04:07:58;;;;;;;1.40;0.45;;;17.70;99.90;;;;;;4900994;29;20052;-79
2023/08/04 04:10:25;;;;;;;1.05;0.40;;;17.80;99.90;;;;;;4901088;29;20547;-81
2023/08/04 04:12:52;;;;;;;1.23;0.45;;;17.80;99.90;;;;;;4900930;29;20044;-81
2023/08/04 04:15:18;;;;;;;2.03;0.40;;;17.80;99.90;;;;;;4899561;29;20057;-81
2023/08/04 04:17:45;;;;;;;2.78;0.50;;;17.80;99.90;;;;;;4901559;29;20053;-81
2023/08/04 04:20:12;;;;;;;1.23;0.60;;;17.80;99.90;;;;;;4900744;29;20079;-81
2023/08/04 04:22:39;;;;;;;0.80;0.43;;;17.80;99.90;;;;;;4895476;29;20048;-82
2023/08/04 04:25:06;;;;;;;2.45;0.60;;;17.80;99.90;;;;;;4898410;29;20124;-80
2023/08/04 04:27:33;;;;;;;1.40;0.47;;;17.80;99.90;;;;;;4901231;29;20108;-81
2023/08/04 04:29:59;;;;;;;3.90;0.70;;;17.80;99.90;;;;;;4902138;29;20125;-81
2023/08/04 04:32:26;;;;;;;1.50;0.77;;;17.80;99.90;;;;;;4902111;29;20052;-81
2023/08/04 04:34:55;;;;;;;1.60;0.50;;;17.80;99.90;;;;;;4901812;29;20060;-81
2023/08/04 04:37:22;;;;;;;1.80;0.50;;;17.80;99.90;;;;;;4901901;29;20624;-81
2023/08/04 04:39:49;;;;;;;2.00;0.70;;;17.80;99.90;;;;;;4900924;29;20104;-81
2023/08/04 04:42:16;;;;;;;2.67;0.52;;;17.80;99.90;;;;;;4899851;29;20140;-80
2023/08/04 04:44:43;;;;;;;1.10;0.35;;;17.80;99.90;;;;;;4901074;29;20053;-81
2023/08/04 04:47:11;;;;;;;1.55;0.50;;;17.90;99.90;;;;;;4900140;29;20053;-80
2023/08/04 04:49:37;;;;;;;2.05;0.73;;;17.80;99.90;;;;;;4915776;29;20045;-81
2023/08/04 04:52:05;;;;;;;2.65;0.60;;;17.80;99.90;;;;;;4901099;29;20052;-80
2023/08/04 04:54:32;;;;;;;1.90;0.45;;;17.90;99.90;;;;;;4898229;29;20492;-81
2023/08/04 04:56:59;;;;;;;4.80;0.70;;;17.90;99.90;;;;;;4901521;29;20093;-81
2023/08/04 04:59:25;;;;;;;1.25;0.50;;;18.00;99.90;;;;;;4906037;29;20056;-80
2023/08/04 05:01:52;;;;;;;3.55;0.65;;;18.00;99.90;;;;;;4908506;29;20055;-80
2023/08/04 05:04:19;;;;;;;3.67;0.55;;;18.00;99.90;;;;;;4903352;29;20135;-81
2023/08/04 05:06:46;;;;;;;3.85;0.40;;;18.00;99.90;;;;;;4900562;29;20057;-79
2023/08/04 05:09:13;;;;;;;1.75;0.40;;;18.00;99.90;;;;;;4900579;29;20056;-81
2023/08/04 05:11:39;;;;;;;1.85;0.75;;;18.10;99.90;;;;;;4901424;29;20060;-81
2023/08/04 05:14:06;;;;;;;2.30;0.45;;;18.10;99.90;;;;;;4897674;29;20059;-81
2023/08/04 05:16:33;;;;;;;0.55;0.40;;;18.10;99.90;;;;;;4899218;29;20416;-81
2023/08/04 05:19:00;;;;;;;0.45;0.32;;;18.20;99.90;;;;;;4900394;29;20044;-81
2023/08/04 05:21:26;;;;;;;1.85;0.50;;;18.20;99.90;;;;;;4900395;29;20104;-81
2023/08/04 05:23:54;;;;;;;1.92;0.40;;;18.30;99.90;;;;;;4898778;29;20052;-81
2023/08/04 05:26:21;;;;;;;2.70;0.80;;;18.30;99.90;;;;;;4899555;29;20053;-81
2023/08/04 05:28:47;;;;;;;0.95;0.40;;;18.30;99.90;;;;;;4902425;29;20108;-81
2023/08/04 05:31:14;;;;;;;2.50;0.80;;;18.40;99.90;;;;;;4901452;29;20052;-80
2023/08/04 05:33:41;;;;;;;2.70;0.55;;;18.40;99.90;;;;;;4900288;29;20090;-81
2023/08/04 05:36:09;;;;;;;0.77;0.50;;;18.40;99.90;;;;;;4900969;29;20045;-81
2023/08/04 05:38:35;;;;;;;0.63;0.32;;;18.40;99.90;;;;;;4899598;29;20052;-81
2023/08/04 05:41:02;;;;;;;2.25;0.77;;;18.50;99.90;;;;;;4901375;29;20064;-81
2023/08/04 05:43:29;;;;;;;4.05;0.60;;;18.50;99.90;;;;;;4900454;29;20060;-81
2023/08/04 05:46:02;;;;;;;1.95;0.50;;;18.50;99.90;;;;;;4914459;29;20049;-81
2023/08/04 05:48:33;;;;;;;1.10;0.45;;;18.50;99.90;;;;;;4900106;29;20077;-80
2023/08/04 05:51:00;;;;;;;0.82;0.38;;;18.60;99.90;;;;;;4898852;29;20477;-81
2023/08/04 05:53:27;;;;;;;1.77;0.80;;;18.60;99.90;;;;;;4901106;29;20052;-81
2023/08/04 05:55:54;;;;;;;1.52;0.45;;;18.70;99.90;;;;;;4901143;29;20045;-81
2023/08/04 05:58:21;;;;;;;2.67;0.30;;;18.70;99.90;;;;;;4903628;29;20052;-81
2023/08/04 06:00:48;;;;;;;1.90;0.38;;;18.70;99.90;;;;;;4901741;29;20112;-80
2023/08/04 06:03:15;;;;;;;2.05;0.50;;;18.80;99.90;;;;;;4898455;29;20477;-82
2023/08/04 06:05:42;;;;;;;1.42;0.50;;;18.80;99.90;;;;;;4914993;29;20056;-82
2023/08/04 06:08:10;;;;;;;1.13;0.40;;;18.80;99.90;;;;;;4899580;29;20420;-82
2023/08/04 06:10:37;;;;;;;0.85;0.30;;;18.90;99.90;;;;;;4903158;29;20080;-82
2023/08/04 06:13:04;;;;;;;1.27;0.60;;;18.90;99.90;;;;;;4903490;29;20060;-82
2023/08/04 06:15:31;;;;;;;1.73;0.30;;;18.90;99.90;;;;;;4904261;29;20497;-82
2023/08/04 06:17:58;;;;;;;1.52;0.50;;;19.00;99.90;;;;;;4904525;29;20121;-83
2023/08/04 06:20:25;;;;;;;2.63;0.60;;;19.00;99.90;;;;;;4901823;29;20595;-81
2023/08/04 06:22:52;;;;;;;2.90;1.25;;;19.00;99.90;;;;;;4904073;29;20480;-82
2023/08/04 06:25:19;;;;;;;1.67;0.40;;;19.10;99.90;;;;;;4904544;29;20049;-83
2023/08/04 06:27:45;;;;;;;1.30;0.57;;;19.10;99.90;;;;;;4903533;29;20045;-83
2023/08/04 06:30:12;;;;;;;1.08;0.30;;;19.10;99.90;;;;;;4904739;29;20048;-82
2023/08/04 06:32:39;;;;;;;2.17;0.43;;;19.10;99.90;;;;;;4903802;29;20142;-82
2023/08/04 06:35:06;;;;;;;1.67;0.43;;;19.20;99.90;;;;;;4904437;29;20048;-82
2023/08/04 06:37:34;;;;;;;1.60;0.30;;;19.30;99.90;;;;;;4903661;29;20509;-83
2023/08/04 06:40:00;;;;;;;1.45;0.40;;;19.30;99.90;;;;;;4902504;29;20489;-82
2023/08/04 06:42:27;;;;;;;1.52;0.40;;;19.30;99.90;;;;;;4903526;29;20057;-82
2023/08/04 06:44:54;;;;;;;1.13;0.50;;;19.40;99.90;;;;;;4903551;29;20457;-81
2023/08/04 06:47:21;;;;;;;0.47;0.30;;;19.30;99.90;;;;;;4903500;29;20048;-82
2023/08/04 06:49:49;;;;;;;2.58;0.50;;;19.40;99.90;;;;;;4903223;29;20472;-83
2023/08/04 06:52:15;;;;;;;1.60;0.60;;;19.40;99.90;;;;;;4903593;29;20044;-82
2023/08/04 06:54:43;;;;;;;0.93;0.40;;;19.40;99.90;;;;;;4901371;29;20108;-81
2023/08/04 06:57:09;;;;;;;0.30;0.30;;;19.40;99.90;;;;;;4903467;29;20053;-81
2023/08/04 06:59:36;;;;;;;1.52;0.30;;;19.40;99.90;;;;;;4903415;29;20081;-82
2023/08/04 07:02:03;;;;;;;0.30;0.30;;;19.40;99.90;;;;;;4903118;29;20084;-82
2023/08/04 07:04:30;;;;;;;0.82;0.30;;;19.50;99.90;;;;;;4902776;29;20173;-82
2023/08/04 07:06:57;;;;;;;1.45;0.50;;;19.50;99.90;;;;;;4903244;29;20052;-83
2023/08/04 07:09:25;;;;;;;2.33;0.43;;;19.50;99.90;;;;;;4901978;29;20049;-82
2023/08/04 07:11:52;;;;;;;0.73;0.30;;;19.50;99.90;;;;;;4903224;29;20091;-83
2023/08/04 07:14:19;;;;;;;2.28;0.40;;;19.50;99.90;;;;;;4904230;29;20044;-82
2023/08/04 07:16:46;;;;;;;2.00;0.80;;;19.60;99.90;;;;;;4903278;29;20052;-82
2023/08/04 07:19:14;;;;;;;2.10;0.80;;;19.60;99.90;;;;;;4903646;29;20056;-83
2023/08/04 07:21:42;;;;;;;1.17;0.47;;;19.60;99.90;;;;;;4902646;29;20092;-80
2023/08/04 07:24:09;;;;;;;1.52;0.40;;;19.70;99.90;;;;;;4903531;29;20052;-83
2023/08/04 07:26:36;;;;;;;0.45;0.30;;;19.70;99.90;;;;;;4903708;29;20108;-80
2023/08/04 07:29:03;;;;;;;2.05;0.55;;;19.80;99.90;;;;;;4903377;29;20048;-81
2023/08/04 07:31:33;;;;;;;1.30;0.47;;;19.80;99.90;;;;;;4901580;29;20052;-81
2023/08/04 07:34:00;;;;;;;1.38;0.43;;;19.80;99.90;;;;;;4902765;29;20100;-81
2023/08/04 07:36:27;;;;;;;0.25;0.20;;;19.80;99.90;;;;;;4903445;29;20056;-81
2023/08/04 07:38:55;;;;;;;1.20;0.57;;;19.90;99.90;;;;;;4902170;29;20061;-81
2023/08/04 07:41:24;;;;;;;1.80;0.50;;;19.90;99.90;;;;;;4916488;29;20068;-81
2023/08/04 07:43:52;;;;;;;1.90;0.40;;;19.90;99.90;;;;;;4902834;29;20052;-80
2023/08/04 07:46:27;;;;;;;0.95;0.40;;;19.90;99.90;;;;;;4903002;29;20056;-81
2023/08/04 07:48:54;;;;;;;1.50;0.40;;;19.90;99.90;;;;;;4905116;29;20112;-79
2023/08/04 07:51:21;;;;;;;1.48;0.70;;;20.00;99.90;;;;;;4908042;29;20057;-81
2023/08/04 07:53:48;;;;;;;1.08;0.50;;;20.00;99.90;;;;;;4905352;29;20056;-81
2023/08/04 07:56:15;;;;;;;0.90;0.30;;;20.00;99.90;;;;;;4902803;29;20314;-82
2023/08/04 07:58:42;;;;;;;0.93;0.50;;;20.10;99.90;;;;;;4901961;29;20060;-82
2023/08/04 08:01:09;;;;;;;0.70;0.30;;;20.10;99.90;;;;;;4905092;29;20059;-81
2023/08/04 08:03:36;;;;;;;0.55;0.40;;;20.20;99.90;;;;;;4905982;29;20057;-81
2023/08/04 08:06:03;;;;;;;0.95;0.40;;;20.20;99.90;;;;;;4920263;29;20477;-82
2023/08/04 08:08:31;;;;;;;1.75;0.63;;;20.30;99.90;;;;;;4903129;29;20100;-82
2023/08/04 08:10:58;;;;;;;1.08;0.40;;;20.40;99.90;;;;;;4902841;29;20059;-81
2023/08/04 08:13:25;;;;;;;3.20;0.40;;;20.40;99.90;;;;;;4902804;29;20075;-82
2023/08/04 08:15:52;;;;;;;1.80;0.50;;;20.40;99.90;;;;;;4902598;29;20052;-81
2023/08/04 08:18:19;;;;;;;1.25;0.38;;;20.50;99.90;;;;;;4902279;29;20045;-81
2023/08/04 08:20:46;;;;;;;1.98;0.32;;;20.50;99.90;;;;;;4902739;29;20052;-81
2023/08/04 08:23:13;;;;;;;1.25;0.30;;;20.50;99.90;;;;;;4898899;29;20059;-81
2023/08/04 08:25:41;;;;;;;1.48;0.45;;;20.50;99.90;;;;;;4901040;29;20044;-81
2023/08/04 08:28:08;;;;;;;1.00;0.25;;;20.60;99.90;;;;;;4902084;29;20053;-81
2023/08/04 08:30:34;;;;;;;5.72;0.60;;;20.60;99.90;;;;;;4902013;29;20048;-82
2023/08/04 08:33:01;;;;;;;2.13;0.50;;;20.60;99.90;;;;;;4900730;29;20485;-82
2023/08/04 08:35:28;;;;;;;1.17;0.40;;;20.60;99.90;;;;;;4900096;29;20516;-80
2023/08/04 08:37:55;;;;;;;0.93;0.75;;;20.60;99.90;;;;;;4901563;29;20523;-82
2023/08/04 08:40:25;;;;;;;0.75;0.52;;;20.70;99.90;;;;;;4901383;29;20049;-81
2023/08/04 08:42:53;;;;;;;5.18;2.60;;;20.70;99.90;;;;;;4915815;29;20044;-81
2023/08/04 08:45:26;;;;;;;3.45;1.10;;;20.80;99.90;;;;;;4900936;29;20131;-82
2023/08/04 08:47:54;;;;;;;0.82;0.50;;;20.90;99.90;;;;;;4912315;29;20096;-82
2023/08/04 08:50:24;;;;;;;2.33;0.60;;;21.10;99.90;;;;;;4900708;29;20051;-81
2023/08/04 08:52:58;;;;;;;0.73;0.30;;;21.10;99.90;;;;;;4899325;29;20457;-82
2023/08/04 08:55:27;;;;;;;1.08;0.35;;;21.20;99.90;;;;;;4898236;29;20045;-82
2023/08/04 08:57:56;;;;;;;2.35;0.90;;;21.30;99.90;;;;;;4895952;29;20053;-82
2023/08/04 09:00:22;;;;;;;0.85;0.40;;;21.40;99.90;;;;;;4904009;29;20117;-82
2023/08/04 09:02:50;;;;;;;1.95;0.40;;;21.50;99.90;;;;;;4903090;29;20476;-82
2023/08/04 09:05:17;;;;;;;0.80;0.30;;;21.60;99.90;;;;;;4902819;29;20048;-82
2023/08/04 09:07:44;;;;;;;0.77;0.40;;;21.70;99.90;;;;;;4903356;29;20049;-82
2023/08/04 09:10:10;;;;;;;0.80;0.30;;;21.90;99.90;;;;;;4902126;29;20548;-82
2023/08/04 09:12:39;;;;;;;0.25;0.20;;;22.00;99.90;;;;;;4902543;29;20044;-82
2023/08/04 09:15:06;;;;;;;0.77;0.40;;;22.10;99.90;;;;;;4901831;29;20053;-82
2023/08/04 09:17:38;;;;;;;0.35;0.10;;;22.20;99.90;;;;;;4901814;29;20052;-83
2023/08/04 09:20:11;;;;;;;0.20;0.10;;;22.30;99.90;;;;;;4899644;29;20048;-82
2023/08/04 09:22:40;;;;;;;0.43;0.15;;;22.40;99.90;;;;;;4901339;29;20052;-82
2023/08/04 09:25:09;;;;;;;0.68;0.35;;;22.30;99.90;;;;;;4901796;29;20069;-82
2023/08/04 09:27:38;;;;;;;0.25;0.20;;;22.40;99.90;;;;;;4901738;29;20044;-82
2023/08/04 09:30:09;;;;;;;0.60;0.30;;;22.30;99.90;;;;;;4915826;29;20604;-82
2023/08/04 09:32:52;;;;;;;0.65;0.30;;;22.20;99.90;;;;;;4900858;29;20389;-82
2023/08/04 09:35:19;;;;;;;0.35;0.15;;;22.10;99.90;;;;;;4900607;29;20100;-82
2023/08/04 09:37:46;;;;;;;0.43;0.10;;;22.10;99.90;;;;;;4900720;29;20494;-82
2023/08/04 09:40:18;;;;;;;0.40;0.20;;;21.90;99.90;;;;;;4901438;29;20061;-82
2023/08/04 09:42:46;;;;;;;0.25;0.10;;;21.80;99.90;;;;;;4895202;29;20135;-82
2023/08/04 09:45:15;;;;;;;0.55;0.20;;;21.80;99.90;;;;;;4904344;29;20056;-82
2023/08/04 09:47:47;;;;;;;0.45;0.30;;;21.80;99.90;;;;;;4906623;29;20053;-82
2023/08/04 09:50:14;;;;;;;0.50;0.20;;;21.80;99.90;;;;;;4906049;29;20108;-83
2023/08/04 09:52:41;;;;;;;0.30;0.30;;;21.80;99.90;;;;;;4904754;29;20104;-82
2023/08/04 09:55:08;;;;;;;2.70;0.30;;;21.80;99.90;;;;;;4904781;29;20049;-83
2023/08/04 09:57:36;;;;;;;0.60;0.30;;;21.90;99.90;;;;;;4907153;29;20055;-82
2023/08/04 10:00:08;;;;;;;0.30;0.20;;;22.00;99.90;;;;;;4905426;29;20401;-82
2023/08/04 10:02:35;;;;;;;0.52;0.30;;;22.10;99.90;;;;;;4905787;29;20067;-82
2023/08/04 10:05:03;;;;;;;2.40;0.28;;;22.20;99.90;;;;;;4897748;29;20052;-82
2023/08/04 10:07:33;;;;;;;0.88;0.20;;;22.30;99.90;;;;;;4896830;29;20432;-82
2023/08/04 10:10:03;;;;;;;0.10;0.10;;;22.30;99.90;;;;;;4900359;29;20056;-82
2023/08/04 10:12:34;;;;;;;0.20;0.20;;;22.40;99.90;;;;;;4913797;29;20041;-82
2023/08/04 10:15:01;;;;;;;0.52;0.17;;;22.40;99.90;;;;;;4906730;29;20045;-82
2023/08/04 10:17:28;;;;;;;0.22;0.10;;;22.40;99.90;;;;;;4900698;29;20113;-82
2023/08/04 10:20:06;;;;;;;0.25;0.20;;;22.50;99.90;;;;;;4903217;29;20131;-82
2023/08/04 10:22:33;;;;;;;0.20;0.20;;;22.50;99.90;;;;;;4906486;29;20163;-83
2023/08/04 10:25:11;;;;;;;0.60;0.20;;;22.50;99.90;;;;;;4900548;29;20108;-82
2023/08/04 10:27:49;;;;;;;0.68;0.30;;;22.50;99.90;;;;;;4899826;29;20044;-82
2023/08/04 10:30:16;;;;;;;2.65;1.08;;;22.50;99.90;;;;;;4902079;29;20053;-82
2023/08/04 10:32:43;;;;;;;2.17;0.35;;;22.40;99.90;;;;;;4901096;29;20401;-82
2023/08/04 10:35:19;;;;;;;0.20;0.20;;;22.20;99.90;;;;;;4901385;29;20052;-83
2023/08/04 10:37:58;;;;;;;1.75;0.28;;;22.20;99.90;;;;;;4897187;29;20500;-82
2023/08/04 10:40:33;;;;;;;0.20;0.20;;;22.20;99.90;;;;;;4904204;29;20052;-82
2023/08/04 10:43:06;;;;;;;0.63;0.30;;;22.10;99.90;;;;;;4894221;29;20091;-82
2023/08/04 10:45:50;;;;;;;0.30;0.10;;;22.00;99.90;;;;;;4903276;29;20431;-82
2023/08/04 10:48:19;;;;;;;0.45;0.30;;;22.10;99.90;;;;;;4901887;29;20052;-82
2023/08/04 10:50:50;;;;;;;0.73;0.30;;;22.10;99.90;;;;;;4900768;29;20063;-83
2023/08/04 10:53:18;;;;;;;0.22;0.20;;;22.20;99.90;;;;;;4908064;29;20095;-82
2023/08/04 10:55:56;;;;;;;0.73;0.17;;;22.20;99.90;;;;;;4915324;29;20423;-82
2023/08/04 10:58:25;;;;;;;0.70;0.30;;;22.20;99.90;;;;;;4903046;29;20056;-82
2023/08/04 11:00:56;;;;;;;1.70;0.35;;;22.20;99.90;;;;;;4902046;29;20056;-82
2023/08/04 11:03:33;;;;;;;1.55;0.50;;;22.30;99.90;;;;;;4900135;29;20048;-82
2023/08/04 11:06:00;;;;;;;0.50;0.30;;;22.30;99.90;;;;;;4900346;29;20049;-82
2023/08/04 11:08:27;;;;;;;0.75;0.30;;;22.30;99.90;;;;;;4901833;29;20053;-82
2023/08/04 11:10:56;;;;;;;1.35;0.50;;;22.30;99.90;;;;;;4898296;29;20056;-82
2023/08/04 11:13:25;;;;;;;0.23;0.23;;;22.20;99.90;;;;;;4898576;29;20063;-82
2023/08/04 11:15:55;;;;;;;0.30;0.28;;;22.30;99.90;;;;;;4900569;29;20301;-82
2023/08/04 11:18:22;;;;;;;;;;;22.30;99.90;;;;;;4900436;29;20071;-82
2023/08/04 11:20:49;;;;;;;2.47;0.40;;;22.30;99.90;;;;;;4901126;29;19923;-82
2023/08/04 11:23:25;;;;;;;0.55;0.22;;;22.30;99.90;;;;;;4902242;29;20056;-82
2023/08/04 11:25:52;;;;;;;1.33;0.50;;;22.40;99.90;;;;;;4903787;29;20565;-82
2023/08/04 11:28:20;;;;;;;0.47;0.22;;;22.40;99.90;;;;;;4917980;29;20085;-82
2023/08/04 11:30:52;;;;;;;0.10;0.10;;;22.50;99.90;;;;;;4898830;29;20052;-82
2023/08/04 11:33:19;;;;;;;0.50;0.20;;;22.50;99.90;;;;;;4898847;29;20045;-82
2023/08/04 11:35:46;;;;;;;0.50;0.20;;;22.60;99.90;;;;;;4903267;29;20092;-82
2023/08/04 11:38:13;;;;;;;0.50;0.20;;;22.60;99.90;;;;;;4900260;29;20052;-82
2023/08/04 11:41:00;;;;;;;0.88;0.20;;;22.70;99.90;;;;;;4900237;29;20054;-81
2023/08/04 11:43:29;;;;;;;0.10;0.10;;;22.70;99.90;;;;;;4902056;29;20048;-82
2023/08/04 11:45:56;;;;;;;0.30;0.15;;;22.70;99.90;;;;;;4897860;29;20052;-82
2023/08/04 11:48:27;;;;;;;0.10;0.10;;;22.70;99.90;;;;;;4922577;23;20052;-84
2023/08/04 11:50:54;;;;;;;1.17;0.20;;;22.60;99.90;;;;;;4907081;29;20049;-85
2023/08/04 11:53:22;;;;;;;47.05;3.25;;;22.40;99.90;;;;;;4885638;29;20495;-84
2023/08/04 11:55:59;;;;;;;111.38;4.53;;;22.00;99.90;;;;;;4890431;29;20045;-85
2023/08/04 11:58:33;;;;;;;41.45;2.50;;;19.90;99.90;;;;;;4907587;29;20123;-83
2023/08/04 12:01:00;;;;;;;113.47;3.72;;;18.50;99.90;;;;;;4903542;29;20084;-83
2023/08/04 12:03:48;;;;;;;1.67;0.40;;;17.10;99.90;;;;;;4890763;29;20052;-83
2023/08/04 12:06:20;;;;;;;2.38;0.60;;;16.90;99.90;;;;;;4892635;29;20053;-82
2023/08/04 12:08:53;;;;;;;1.77;0.50;;;17.00;99.90;;;;;;4891396;29;20055;-81
2023/08/04 12:11:26;;;;;;;2.35;0.65;;;16.90;99.90;;;;;;4907720;29;20059;-80
2023/08/04 12:14:07;;;;;;;1.50;0.47;;;17.00;99.90;;;;;;4900295;29;20049;-80
2023/08/04 12:17:07;;;;;;;2.80;0.75;;;17.20;99.90;;;;;;4896836;29;20154;-82
2023/08/04 12:19:34;;;;;;;1.40;0.50;;;17.40;99.90;;;;;;4871760;29;20057;-82
2023/08/04 12:22:03;;;;;;;5.63;1.05;;;17.50;99.90;;;;;;4893057;29;20057;-82
2023/08/04 12:24:31;;;;;;;3.15;0.52;;;17.60;99.90;;;;;;4892285;29;20053;-83
2023/08/04 12:26:58;;;;;;;2.88;0.55;;;17.60;99.90;;;;;;4899567;29;20084;-83
2023/08/04 12:29:24;;;;;;;1.33;0.70;;;17.60;99.90;;;;;;4912353;29;20084;-81
2023/08/04 12:31:51;;;;;;;1.58;0.47;;;17.60;99.90;;;;;;4911049;29;20072;-84
2023/08/04 12:34:19;;;;;;;0.30;0.30;;;17.60;99.90;;;;;;4898379;29;20083;-84
2023/08/04 12:36:49;;;;;;;0.50;0.40;;;17.50;99.90;;;;;;4889165;29;20071;-84
2023/08/04 12:39:15;;;;;;;0.50;0.40;;;17.40;99.90;;;;;;4910310;29;20051;-83
2023/08/04 12:41:42;;;;;;;1.85;0.60;;;17.40;99.90;;;;;;4896959;29;20056;-83
2023/08/04 12:44:10;;;;;;;1.08;0.50;;;17.40;99.90;;;;;;4895975;29;20489;-81
2023/08/04 12:46:37;;;;;;;2.72;0.70;;;17.40;99.90;;;;;;4900887;29;20049;-83
2023/08/04 12:49:04;;;;;;;2.00;0.60;;;17.40;99.90;;;;;;4895758;29;20061;-84
2023/08/04 12:51:31;;;;;;;3.00;0.70;;;17.40;99.90;;;;;;4889741;29;20467;-83
2023/08/04 12:53:58;;;;;;;0.65;0.55;;;17.40;99.90;;;;;;4891421;29;20074;-82